createdAt,value
2022-09-10T00:01:40.748Z,93.55
2022-09-10T00:04:12.851Z,94.30
2022-09-10T00:06:45.303Z,94.53
2022-09-10T00:09:14.670Z,94.77
2022-09-10T00:11:43.604Z,94.85
2022-09-10T00:14:19.938Z,94.99
2022-09-10T00:16:48.461Z,94.58
2022-09-10T00:19:17.370Z,94.27
2022-09-10T00:21:47.089Z,94.22
2022-09-10T00:24:15.583Z,93.77
2022-09-10T00:26:44.167Z,93.57
2022-09-10T00:29:15.183Z,93.43
2022-09-10T00:31:43.889Z,93.98
2022-09-10T00:34:14.248Z,94.69
2022-09-10T00:36:44.923Z,95.36
2022-09-10T00:39:16.442Z,95.30
2022-09-10T00:41:47.777Z,95.47
2022-09-10T00:44:56.010Z,95.96
2022-09-10T00:47:30.895Z,96.07
2022-09-10T00:50:05.487Z,96.22
2022-09-10T00:52:39.431Z,96.44
2022-09-10T00:55:11.591Z,96.51
2022-09-10T00:57:41.237Z,96.30
2022-09-10T01:00:13.756Z,96.80
2022-09-10T01:02:43.750Z,96.51
2022-09-10T01:05:13.428Z,96.56
2022-09-10T01:07:42.865Z,96.65
2022-09-10T01:10:18.027Z,96.55
2022-09-10T01:13:15.956Z,97.12
2022-09-10T01:15:51.616Z,97.43
2022-09-10T01:18:34.912Z,97.83
2022-09-10T01:21:19.362Z,97.74
2022-09-10T01:24:30.655Z,97.87
2022-09-10T01:27:41.284Z,98.19
2022-09-10T01:30:15.738Z,98.24
2022-09-10T01:32:59.474Z,98.84
2022-09-10T01:35:39.246Z,98.99
2022-09-10T01:38:15.787Z,98.93
2022-09-10T01:40:46.425Z,99.11
2022-09-10T01:43:20.122Z,99.06
2022-09-10T01:46:11.635Z,99.66
2022-09-10T01:48:59.899Z,99.25
2022-09-10T01:51:40.309Z,99.25
2022-09-10T01:54:28.475Z,99.07
2022-09-10T01:57:10.987Z,99.13
2022-09-10T01:59:51.512Z,99.22
2022-09-10T02:02:25.260Z,99.54
2022-09-10T02:04:55.498Z,99.69
2022-09-10T02:07:27.230Z,99.69
2022-09-10T02:09:57.454Z,99.81
2022-09-10T02:12:27.879Z,99.83
2022-09-10T02:15:28.650Z,100.00
2022-09-10T02:18:07.450Z,100.00
2022-09-10T02:20:35.794Z,100.00
2022-09-10T02:23:04.906Z,99.90
2022-09-10T02:25:37.255Z,99.74
2022-09-10T02:28:06.199Z,99.64
2022-09-10T02:30:36.261Z,99.41
2022-09-10T02:33:04.791Z,99.20
2022-09-10T02:35:33.128Z,99.31
2022-09-10T02:38:01.547Z,98.97
2022-09-10T02:40:31.751Z,98.66
2022-09-10T02:43:00.467Z,98.82
2022-09-10T02:45:30.210Z,98.50
2022-09-10T02:48:01.565Z,98.39
2022-09-10T02:50:31.257Z,98.16
2022-09-10T02:53:00.986Z,97.78
2022-09-10T02:55:29.371Z,97.35
2022-09-10T02:57:58.316Z,97.11
2022-09-10T03:00:27.040Z,96.57
2022-09-10T03:03:00.869Z,96.00
2022-09-10T03:05:32.699Z,95.78
2022-09-10T03:08:01.431Z,95.29
2022-09-10T03:10:31.745Z,95.11
2022-09-10T03:13:00.428Z,95.05
2022-09-10T03:15:29.567Z,95.07
2022-09-10T03:17:58.261Z,95.59
2022-09-10T03:20:27.480Z,95.68
2022-09-10T03:22:57.242Z,95.62
2022-09-10T03:25:25.627Z,95.54
2022-09-10T03:27:59.789Z,95.57
2022-09-10T03:30:29.144Z,95.83
2022-09-10T03:32:57.793Z,96.48
2022-09-10T03:35:26.208Z,96.70
2022-09-10T03:37:56.035Z,96.76
2022-09-10T03:40:24.307Z,96.69
2022-09-10T03:42:52.601Z,96.40
2022-09-10T03:45:20.820Z,95.96
2022-09-10T03:47:49.057Z,95.83
2022-09-10T03:50:20.306Z,95.68
2022-09-10T03:52:48.608Z,95.81
2022-09-10T03:55:18.950Z,95.60
2022-09-10T03:57:47.385Z,95.47
2022-09-10T04:00:17.718Z,95.34
2022-09-10T04:02:46.877Z,95.46
2022-09-10T04:05:16.000Z,95.29
2022-09-10T04:07:44.261Z,94.93
2022-09-10T04:10:14.680Z,94.58
2022-09-10T04:12:45.176Z,94.33
2022-09-10T04:15:13.767Z,94.30
2022-09-10T04:17:42.252Z,94.33
2022-09-10T04:20:12.010Z,94.37
2022-09-10T04:22:41.183Z,94.06
2022-09-10T04:25:10.714Z,94.06
2022-09-10T04:27:40.003Z,94.01
2022-09-10T04:30:12.416Z,94.11
2022-09-10T04:32:41.070Z,94.07
2022-09-10T04:35:11.170Z,94.31
2022-09-10T04:37:39.579Z,94.07
2022-09-10T04:40:09.667Z,94.41
2022-09-10T04:42:39.046Z,94.22
2022-09-10T04:45:10.927Z,94.15
2022-09-10T04:47:39.375Z,93.94
2022-09-10T04:50:10.263Z,93.77
2022-09-10T04:52:39.031Z,93.90
2022-09-10T04:55:09.692Z,93.68
2022-09-10T04:57:38.251Z,93.39
2022-09-10T05:00:09.007Z,93.12
2022-09-10T05:02:40.636Z,92.92
2022-09-10T05:05:09.943Z,92.59
2022-09-10T05:07:38.647Z,92.51
2022-09-10T05:10:10.509Z,92.36
2022-09-10T05:12:39.612Z,92.25
2022-09-10T05:15:09.984Z,92.19
2022-09-10T05:17:39.833Z,91.78
2022-09-10T05:20:10.150Z,91.66
2022-09-10T05:22:45.392Z,91.50
2022-09-10T05:25:13.779Z,91.48
2022-09-10T05:27:42.790Z,91.53
2022-09-10T05:30:15.268Z,91.55
2022-09-10T05:32:45.184Z,91.70
2022-09-10T05:35:14.555Z,92.05
2022-09-10T05:37:46.377Z,91.96
2022-09-10T05:40:16.256Z,92.07
2022-09-10T05:42:44.932Z,92.17
2022-09-10T05:45:14.019Z,92.30
2022-09-10T05:47:45.474Z,91.75
2022-09-10T05:50:18.621Z,91.72
2022-09-10T05:52:47.211Z,91.20
2022-09-10T05:55:15.774Z,91.15
2022-09-10T05:57:44.106Z,91.59
2022-09-10T06:00:15.951Z,91.14
2022-09-10T06:02:53.269Z,90.77
2022-09-10T06:05:31.991Z,90.86
2022-09-10T06:08:05.415Z,90.84
2022-09-10T06:10:38.558Z,90.58
2022-09-10T06:13:07.387Z,89.26
2022-09-10T06:15:37.889Z,89.63
2022-09-10T06:18:07.611Z,88.57
2022-09-10T06:20:37.001Z,88.43
2022-09-10T06:23:06.999Z,88.53
2022-09-10T06:25:35.257Z,88.34
2022-09-10T06:28:03.933Z,88.46
2022-09-10T06:30:32.449Z,88.23
2022-09-10T06:33:00.984Z,88.09
2022-09-10T06:35:32.402Z,88.50
2022-09-10T06:38:02.071Z,88.21
2022-09-10T06:40:30.367Z,87.90
2022-09-10T06:43:06.090Z,89.21
2022-09-10T06:46:02.032Z,89.65
2022-09-10T06:48:48.540Z,88.76
2022-09-10T06:51:20.535Z,88.47
2022-09-10T06:53:51.294Z,87.71
2022-09-10T06:56:22.095Z,87.65
2022-09-10T06:58:51.726Z,87.32
2022-09-10T07:01:23.786Z,87.11
2022-09-10T07:03:57.823Z,87.94
2022-09-10T07:06:31.822Z,87.54
2022-09-10T07:09:05.866Z,87.74
2022-09-10T07:11:41.529Z,88.44
2022-09-10T07:14:13.895Z,88.25
2022-09-10T07:16:44.567Z,88.54
2022-09-10T07:19:14.898Z,87.97
2022-09-10T07:21:47.536Z,89.14
2022-09-10T07:24:18.123Z,89.00
2022-09-10T07:27:00.324Z,88.41
2022-09-10T07:29:31.315Z,87.38
2022-09-10T07:32:01.704Z,88.06
2022-09-10T07:34:30.182Z,88.60
2022-09-10T07:36:59.920Z,88.73
2022-09-10T07:39:29.317Z,88.93
2022-09-10T07:42:00.318Z,87.65
2022-09-10T07:44:31.268Z,85.94
2022-09-10T07:47:03.415Z,84.57
2022-09-10T07:49:33.012Z,83.30
2022-09-10T07:52:03.343Z,80.43
2022-09-10T07:54:37.774Z,80.04
2022-09-10T07:57:06.957Z,78.69
2022-09-10T07:59:37.065Z,79.11
2022-09-10T08:02:06.468Z,80.25
2022-09-10T08:04:37.583Z,81.76
2022-09-10T08:07:11.250Z,82.67
2022-09-10T08:09:43.198Z,83.20
2022-09-10T08:12:17.350Z,84.25
2022-09-10T08:14:46.368Z,84.06
2022-09-10T08:17:14.990Z,83.84
2022-09-10T08:19:45.914Z,83.58
2022-09-10T08:22:15.654Z,80.45
2022-09-10T08:24:51.018Z,80.44
2022-09-10T08:27:20.194Z,79.94
2022-09-10T08:29:50.137Z,78.01
2022-09-10T08:32:18.490Z,79.10
2022-09-10T08:34:47.157Z,77.40
2022-09-10T08:37:17.277Z,78.12
2022-09-10T08:39:45.747Z,79.12
2022-09-10T08:42:21.625Z,78.04
2022-09-10T08:44:55.429Z,78.36
2022-09-10T08:47:36.143Z,76.59
2022-09-10T08:50:20.215Z,76.58
2022-09-10T08:52:55.963Z,75.31
2022-09-10T08:55:32.915Z,75.55
2022-09-10T08:58:11.468Z,75.27
2022-09-10T09:00:45.413Z,74.14
2022-09-10T09:03:24.136Z,72.76
2022-09-10T09:05:57.303Z,73.32
2022-09-10T09:08:38.517Z,71.73
2022-09-10T09:11:25.387Z,70.96
2022-09-10T09:14:12.834Z,72.61
2022-09-10T09:17:01.960Z,72.98
2022-09-10T09:19:35.015Z,74.58
2022-09-10T09:22:17.381Z,74.32
2022-09-10T09:24:55.992Z,75.04
2022-09-10T09:27:27.159Z,74.25
2022-09-10T09:30:02.736Z,73.49
2022-09-10T09:32:37.249Z,72.31
2022-09-10T09:35:22.588Z,72.18
2022-09-10T09:38:08.945Z,71.55
2022-09-10T09:40:46.743Z,70.04
2022-09-10T09:43:25.291Z,68.38
2022-09-10T09:45:54.982Z,68.97
2022-09-10T09:48:24.990Z,69.80
2022-09-10T09:50:57.201Z,69.93
2022-09-10T09:53:27.624Z,70.99
2022-09-10T09:56:00.328Z,72.24
2022-09-10T09:58:34.969Z,72.42
2022-09-10T10:01:18.228Z,72.64
2022-09-10T10:03:52.221Z,70.27
2022-09-10T10:06:24.745Z,68.01
2022-09-10T10:09:06.142Z,66.71
2022-09-10T10:11:52.180Z,66.85
2022-09-10T10:14:27.724Z,68.84
2022-09-10T10:17:00.388Z,67.67
2022-09-10T10:19:40.316Z,66.17
2022-09-10T10:22:24.431Z,66.61
2022-09-10T10:24:54.427Z,68.65
2022-09-10T10:27:32.667Z,68.21
2022-09-10T10:30:06.063Z,64.69
2022-09-10T10:32:44.819Z,63.46
2022-09-10T10:35:36.110Z,65.33
2022-09-10T10:38:32.478Z,64.63
2022-09-10T10:41:42.795Z,63.64
2022-09-10T10:44:33.666Z,64.88
2022-09-10T10:47:25.123Z,65.20
2022-09-10T10:50:08.991Z,64.29
2022-09-10T10:52:45.670Z,63.96
2022-09-10T10:55:23.195Z,64.23
2022-09-10T10:58:18.878Z,64.15
2022-09-10T11:00:54.950Z,62.40
2022-09-10T11:03:30.543Z,63.29
2022-09-10T11:06:04.995Z,61.92
2022-09-10T11:08:38.604Z,62.29
2022-09-10T11:11:14.309Z,63.99
2022-09-10T11:13:52.150Z,64.32
2022-09-10T11:16:28.707Z,62.87
2022-09-10T11:19:03.637Z,64.03
2022-09-10T11:21:39.282Z,64.06
2022-09-10T11:24:17.236Z,64.94
2022-09-10T11:26:49.929Z,66.65
2022-09-10T11:29:32.874Z,66.12
2022-09-10T11:32:09.456Z,65.01
2022-09-10T11:35:03.549Z,65.39
2022-09-10T11:37:48.466Z,64.01
2022-09-10T11:40:25.456Z,63.45
2022-09-10T11:42:59.505Z,62.36
2022-09-10T11:45:38.092Z,62.73
2022-09-10T11:48:18.267Z,63.19
2022-09-10T11:50:53.395Z,64.38
2022-09-10T11:53:24.805Z,63.01
2022-09-10T11:56:43.461Z,64.35
2022-09-10T11:59:42.402Z,65.63
2022-09-10T12:02:58.496Z,66.11
2022-09-10T12:05:35.584Z,63.32
2022-09-10T12:08:17.561Z,62.23
2022-09-10T12:10:57.936Z,62.43
2022-09-10T12:13:26.497Z,62.41
2022-09-10T12:15:58.502Z,61.32
2022-09-10T12:18:38.708Z,60.33
2022-09-10T12:21:27.993Z,59.63
2022-09-10T12:23:57.606Z,60.56
2022-09-10T12:26:26.315Z,59.98
2022-09-10T12:29:05.378Z,58.94
2022-09-10T12:32:15.548Z,60.74
2022-09-10T12:34:44.887Z,61.06
2022-09-10T12:37:28.610Z,61.06
2022-09-10T12:40:45.279Z,59.26
2022-09-10T12:43:54.442Z,58.72
2022-09-10T12:46:25.681Z,58.17
2022-09-10T12:49:11.918Z,57.57
2022-09-10T12:51:58.725Z,57.55
2022-09-10T12:54:48.373Z,57.67
2022-09-10T12:57:31.105Z,59.27
2022-09-10T13:00:18.745Z,60.90
2022-09-10T13:02:55.090Z,60.25
2022-09-10T13:05:31.493Z,58.36
2022-09-10T13:08:18.183Z,59.55
2022-09-10T13:11:05.730Z,58.92
2022-09-10T13:13:39.062Z,58.49
2022-09-10T13:16:13.408Z,57.64
2022-09-10T13:18:41.895Z,57.93
2022-09-10T13:21:52.905Z,58.40
2022-09-10T13:25:01.184Z,59.40
2022-09-10T13:27:44.426Z,57.77
2022-09-10T13:30:18.758Z,57.70
2022-09-10T13:32:52.977Z,57.81
2022-09-10T13:36:06.672Z,57.88
2022-09-10T13:39:29.534Z,58.11
2022-09-10T13:42:31.285Z,57.20
2022-09-10T13:45:29.300Z,58.19
2022-09-10T13:48:04.165Z,57.31
2022-09-10T13:50:40.241Z,57.04
2022-09-10T13:53:11.603Z,57.47
2022-09-10T13:55:41.203Z,57.67
2022-09-10T13:58:15.512Z,57.59
2022-09-10T14:00:55.961Z,59.82
2022-09-10T14:03:29.777Z,59.67
2022-09-10T14:06:04.024Z,60.01
2022-09-10T14:08:38.444Z,59.95
2022-09-10T14:11:15.917Z,60.21
2022-09-10T14:13:51.873Z,61.51
2022-09-10T14:16:30.079Z,61.61
2022-09-10T14:19:02.830Z,61.25
2022-09-10T14:21:31.607Z,59.75
2022-09-10T14:24:00.862Z,61.79
2022-09-10T14:26:33.552Z,62.72
2022-09-10T14:29:04.003Z,62.53
2022-09-10T14:31:38.248Z,61.80
2022-09-10T14:34:36.121Z,62.30
2022-09-10T14:37:45.194Z,62.88
2022-09-10T14:40:19.731Z,63.15
2022-09-10T14:42:49.832Z,63.05
2022-09-10T14:45:41.630Z,62.24
2022-09-10T14:48:36.961Z,63.75
2022-09-10T14:51:14.420Z,63.85
2022-09-10T14:53:43.783Z,64.18
2022-09-10T14:56:23.226Z,64.18
2022-09-10T14:58:59.351Z,63.93
2022-09-10T15:01:28.447Z,63.79
2022-09-10T15:03:59.270Z,63.78
2022-09-10T15:06:27.966Z,63.49
2022-09-10T15:08:57.084Z,62.49
2022-09-10T15:11:27.543Z,62.69
2022-09-10T15:13:58.752Z,62.47
2022-09-10T15:16:27.571Z,63.14
2022-09-10T15:18:58.171Z,62.34
2022-09-10T15:21:26.536Z,61.95
2022-09-10T15:23:54.879Z,61.66
2022-09-10T15:26:23.268Z,61.37
2022-09-10T15:28:52.665Z,60.65
2022-09-10T15:31:21.080Z,60.96
2022-09-10T15:33:49.394Z,60.41
2022-09-10T15:36:19.286Z,60.85
2022-09-10T15:38:47.509Z,62.36
2022-09-10T15:41:16.946Z,62.61
2022-09-10T15:43:45.767Z,63.23
2022-09-10T15:46:17.066Z,63.72
2022-09-10T15:48:47.455Z,63.59
2022-09-10T15:51:21.392Z,64.03
2022-09-10T15:53:52.294Z,64.35
2022-09-10T15:56:24.182Z,66.55
2022-09-10T15:58:55.057Z,67.12
2022-09-10T16:01:25.022Z,66.45
2022-09-10T16:03:56.126Z,65.98
2022-09-10T16:06:28.427Z,66.82
2022-09-10T16:09:01.947Z,65.71
2022-09-10T16:11:32.170Z,65.95
2022-09-10T16:14:04.733Z,65.43
2022-09-10T16:16:34.766Z,65.37
2022-09-10T16:19:04.261Z,65.78
2022-09-10T16:21:37.148Z,66.12
2022-09-10T16:24:07.324Z,66.05
2022-09-10T16:26:38.683Z,65.66
2022-09-10T16:29:12.876Z,65.32
2022-09-10T16:31:41.631Z,67.05
2022-09-10T16:34:14.104Z,68.65
2022-09-10T16:36:44.621Z,69.10
2022-09-10T16:39:15.539Z,69.31
2022-09-10T16:41:46.339Z,68.38
2022-09-10T16:44:17.469Z,67.67
2022-09-10T16:46:47.081Z,67.61
2022-09-10T16:49:18.156Z,69.93
2022-09-10T16:51:49.340Z,68.75
2022-09-10T16:54:19.842Z,69.56
2022-09-10T16:56:50.242Z,68.42
2022-09-10T16:59:20.812Z,68.01
2022-09-10T17:01:49.531Z,68.56
2022-09-10T17:04:23.370Z,69.04
2022-09-10T17:06:56.102Z,68.74
2022-09-10T17:09:24.796Z,68.69
2022-09-10T17:11:53.339Z,67.93
2022-09-10T17:14:21.626Z,67.51
2022-09-10T17:16:49.966Z,67.46
2022-09-10T17:19:23.140Z,67.56
2022-09-10T17:21:56.154Z,67.13
2022-09-10T17:24:26.611Z,67.37
2022-09-10T17:26:56.122Z,67.11
2022-09-10T17:29:26.571Z,67.25
2022-09-10T17:31:57.353Z,67.48
2022-09-10T17:34:27.090Z,67.23
2022-09-10T17:36:56.694Z,66.79
2022-09-10T17:39:28.180Z,67.03
2022-09-10T17:41:57.062Z,67.58
2022-09-10T17:44:25.727Z,67.97
2022-09-10T17:46:55.109Z,67.88
2022-09-10T17:49:23.930Z,68.09
2022-09-10T17:51:53.297Z,68.20
2022-09-10T17:54:23.444Z,68.25
2022-09-10T17:56:51.932Z,68.19
2022-09-10T17:59:21.193Z,68.18
2022-09-10T18:01:49.629Z,68.88
2022-09-10T18:04:19.288Z,68.82
2022-09-10T18:06:52.065Z,69.33
2022-09-10T18:09:23.538Z,69.73
2022-09-10T18:11:51.963Z,69.80
2022-09-10T18:14:21.920Z,70.09
2022-09-10T18:16:51.429Z,70.55
2022-09-10T18:19:20.062Z,69.98
2022-09-10T18:21:51.032Z,69.93
2022-09-10T18:24:24.021Z,70.00
2022-09-10T18:26:54.805Z,70.20
2022-09-10T18:29:25.965Z,70.33
2022-09-10T18:31:56.244Z,70.01
2022-09-10T18:34:27.753Z,69.86
2022-09-10T18:36:58.350Z,69.72
2022-09-10T18:39:30.514Z,70.67
2022-09-10T18:42:00.936Z,70.44
2022-09-10T18:44:33.216Z,70.54
2022-09-10T18:47:02.005Z,70.75
2022-09-10T18:49:30.372Z,71.04
2022-09-10T18:51:58.761Z,70.53
2022-09-10T18:54:29.631Z,70.53
2022-09-10T18:56:58.751Z,70.49
2022-09-10T18:59:27.824Z,70.26
2022-09-10T19:01:56.875Z,70.60
2022-09-10T19:04:27.642Z,70.47
2022-09-10T19:06:56.519Z,70.94
2022-09-10T19:09:29.670Z,70.96
2022-09-10T19:12:00.406Z,71.30
2022-09-10T19:14:35.663Z,71.32
2022-09-10T19:17:04.745Z,71.17
2022-09-10T19:19:36.200Z,71.06
2022-09-10T19:22:07.287Z,70.79
2022-09-10T19:24:54.455Z,71.02
2022-09-10T19:27:23.330Z,70.92
2022-09-10T19:29:51.902Z,70.69
2022-09-10T19:32:21.057Z,70.87
2022-09-10T19:34:50.992Z,70.86
2022-09-10T19:37:19.571Z,70.87
2022-09-10T19:39:49.245Z,70.85
2022-09-10T19:42:17.873Z,70.78
2022-09-10T19:44:46.167Z,70.75
2022-09-10T19:47:14.451Z,70.67
2022-09-10T19:49:43.147Z,70.94
2022-09-10T19:52:11.723Z,71.19
2022-09-10T19:54:39.914Z,70.98
2022-09-10T19:57:09.541Z,70.91
2022-09-10T19:59:38.144Z,71.17
2022-09-10T20:02:06.481Z,71.32
2022-09-10T20:04:36.207Z,71.66
2022-09-10T20:07:05.009Z,71.87
2022-09-10T20:09:36.733Z,72.10
2022-09-10T20:12:10.198Z,72.31
2022-09-10T20:14:39.046Z,72.28
2022-09-10T20:17:07.471Z,72.66
2022-09-10T20:19:36.061Z,72.44
2022-09-10T20:22:04.273Z,72.98
2022-09-10T20:24:32.929Z,72.99
2022-09-10T20:27:01.245Z,73.35
2022-09-10T20:29:32.862Z,73.31
2022-09-10T20:32:01.406Z,73.59
2022-09-10T20:34:31.243Z,74.05
2022-09-10T20:36:59.887Z,74.01
2022-09-10T20:39:28.208Z,74.39
2022-09-10T20:41:56.487Z,75.06
2022-09-10T20:44:26.151Z,76.02
2022-09-10T20:46:57.578Z,76.96
2022-09-10T20:49:25.938Z,77.21
2022-09-10T20:51:54.143Z,76.90
2022-09-10T20:54:22.598Z,76.69
2022-09-10T20:56:50.823Z,76.58
2022-09-10T20:59:20.858Z,76.70
2022-09-10T21:01:52.927Z,76.99
2022-09-10T21:04:22.928Z,77.06
2022-09-10T21:06:51.283Z,77.19
2022-09-10T21:09:19.622Z,76.89
2022-09-10T21:11:47.834Z,77.10
2022-09-10T21:14:17.151Z,77.25
2022-09-10T21:16:47.250Z,77.24
2022-09-10T21:19:17.581Z,77.84
2022-09-10T21:21:48.783Z,77.98
2022-09-10T21:24:19.281Z,78.33
2022-09-10T21:26:47.713Z,79.14
2022-09-10T21:29:17.907Z,79.51
2022-09-10T21:31:46.328Z,79.63
2022-09-10T21:34:15.520Z,79.13
2022-09-10T21:36:44.094Z,78.52
2022-09-10T21:39:18.415Z,78.38
2022-09-10T21:41:48.821Z,78.40
2022-09-10T21:44:20.297Z,78.32
2022-09-10T21:46:49.865Z,78.17
2022-09-10T21:49:18.872Z,78.46
2022-09-10T21:51:47.573Z,77.85
2022-09-10T21:54:20.720Z,78.12
2022-09-10T21:56:50.503Z,78.06
2022-09-10T21:59:19.383Z,77.90
2022-09-10T22:01:48.617Z,78.36
2022-09-10T22:04:21.726Z,78.44
2022-09-10T22:06:51.042Z,78.52
2022-09-10T22:09:21.309Z,78.76
2022-09-10T22:11:52.015Z,79.16
2022-09-10T22:14:23.268Z,79.46
2022-09-10T22:16:53.728Z,79.68
2022-09-10T22:19:23.950Z,80.12
2022-09-10T22:21:54.049Z,79.97
2022-09-10T22:24:24.083Z,80.20
2022-09-10T22:26:52.695Z,79.84
2022-09-10T22:29:22.262Z,79.46
2022-09-10T22:31:50.710Z,79.20
2022-09-10T22:34:20.667Z,79.70
2022-09-10T22:36:50.301Z,80.12
2022-09-10T22:39:20.821Z,80.33
2022-09-10T22:41:52.133Z,80.46
2022-09-10T22:44:20.524Z,80.73
2022-09-10T22:46:49.139Z,81.10
2022-09-10T22:49:17.977Z,81.09
2022-09-10T22:51:46.870Z,81.05
2022-09-10T22:54:16.577Z,80.94
2022-09-10T22:56:45.531Z,80.80
2022-09-10T22:59:16.475Z,80.51
2022-09-10T23:01:48.170Z,80.10
2022-09-10T23:04:17.292Z,80.24
2022-09-10T23:06:45.722Z,80.36
2022-09-10T23:09:15.895Z,80.26
2022-09-10T23:11:45.441Z,79.98
2022-09-10T23:14:19.263Z,80.23
2022-09-10T23:16:50.019Z,80.72
2022-09-10T23:19:19.926Z,81.19
2022-09-10T23:21:51.077Z,80.82
2022-09-10T23:24:21.948Z,80.79
2022-09-10T23:26:50.681Z,81.01
2022-09-10T23:29:23.008Z,81.02
2022-09-10T23:31:53.245Z,80.98
2022-09-10T23:34:22.851Z,81.35
2022-09-10T23:36:51.504Z,81.73
2022-09-10T23:39:22.448Z,81.85
2022-09-10T23:41:53.320Z,81.27
2022-09-10T23:44:23.709Z,80.99
2022-09-10T23:46:53.466Z,81.06
2022-09-10T23:49:21.709Z,81.11
2022-09-10T23:51:50.579Z,81.06
2022-09-10T23:54:19.072Z,81.21
2022-09-10T23:56:47.406Z,81.23
2022-09-10T23:59:16.286Z,82.08
